.
WxDataArchive / Data Records for 2010-06-26
2010-06-25 June 2010 2010-06-27

Data Records for Saturday, 26 June 2010

Time	Temp	Chill	HIndex	Humid	Dewpt	 Wind 	HiWind	WindDir	Rain 	Barom 
-----	----	-----	------	-----	-----	------	------	-------	-----	----- 
00:00	66.8	66.8	66.8	84	61.8	0	0	---	0.00	29.993 
00:05	66.6	66.6	66.6	84	61.6	0	0	---	0.00	29.993 
00:10	66.4	66.4	66.4	84	61.4	0	0	---	0.00	29.993 
00:15	66.4	66.4	66.4	84	61.4	0	0	---	0.00	29.984 
00:20	66.3	66.3	66.3	84	61.3	0	0	---	0.00	29.984 
00:25	66.1	66.1	66.1	84	61.1	0	0	---	0.00	29.984 
00:30	66.1	66.1	66.1	84	61.1	0	0	---	0.00	29.983 
00:35	66.0	66.0	66.0	85	61.4	0	0	---	0.00	29.983 
00:40	65.8	65.8	65.8	85	61.2	0	0	---	0.00	29.983 
00:45	65.6	65.6	65.6	86	61.3	0	0	---	0.00	29.981 
00:50	65.6	65.6	65.6	86	61.3	0	0	---	0.00	29.981 
00:55	65.5	65.5	65.5	86	61.2	0	0	---	0.00	29.981 
01:00	65.3	65.3	65.3	87	61.3	0	0	---	0.00	29.970 
01:05	65.3	65.3	65.3	87	61.3	0	0	---	0.00	29.970 
01:10	65.2	65.2	65.2	87	61.2	0	0	---	0.00	29.970 
01:15	65.2	65.2	65.2	88	61.6	0	0	---	0.00	29.966 
01:20	65.0	65.0	65.0	88	61.4	0	0	---	0.00	29.966 
01:25	65.0	65.0	65.0	88	61.4	0	0	---	0.00	29.966 
01:30	64.8	64.8	64.8	88	61.2	0	0	---	0.00	29.952 
01:35	64.7	64.7	64.7	89	61.4	0	0	---	0.00	29.952 
01:40	64.7	64.7	64.7	89	61.4	0	0	---	0.00	29.952 
01:45	64.7	64.7	64.7	89	61.4	0	0	---	0.00	29.951 
01:50	64.7	64.7	64.7	90	61.7	0	0	---	0.00	29.951 
01:55	64.7	64.7	64.7	90	61.7	0	0	---	0.00	29.951 
02:00	64.5	64.5	64.5	90	61.5	0	0	---	0.00	29.950 
02:05	64.5	64.5	64.5	90	61.5	0	0	---	0.00	29.950 
02:10	64.3	64.3	64.3	91	61.6	0	0	---	0.00	29.950 
02:15	64.3	64.3	64.3	91	61.6	0	0	---	0.00	29.956 
02:20	64.2	64.2	64.2	91	61.5	0	0	---	0.00	29.956 
02:25	64.2	64.2	64.2	91	61.5	0	0	---	0.00	29.956 
02:30	64.2	64.2	64.2	91	61.5	0	0	---	0.00	29.961 
02:35	64.0	64.0	64.0	91	61.3	0	0	---	0.00	29.961 
02:40	64.0	64.0	64.0	91	61.3	0	0	---	0.00	29.961 
02:45	64.0	64.0	64.0	92	61.6	0	0	---	0.00	29.963 
02:50	64.0	64.0	64.0	92	61.6	0	0	---	0.00	29.963 
02:55	63.9	63.9	63.9	92	61.5	0	0	---	0.00	29.963 
03:00	63.9	63.9	63.9	92	61.5	0	0	---	0.00	29.956 
03:05	63.9	63.9	63.9	92	61.5	0	0	---	0.00	29.956 
03:10	63.9	63.9	63.9	92	61.5	0	0	---	0.00	29.956 
03:15	63.7	63.7	63.7	92	61.3	0	0	---	0.00	29.948 
03:20	63.7	63.7	63.7	92	61.3	0	0	---	0.00	29.948 
03:25	63.7	63.7	63.7	92	61.3	0	0	---	0.00	29.948 
03:30	63.7	63.7	63.7	92	61.3	0	0	---	0.00	29.943 
03:35	63.7	63.7	63.7	92	61.3	0	0	---	0.00	29.943 
03:40	63.7	63.7	63.7	92	61.3	0	0	---	0.00	29.943 
03:45	63.7	63.7	63.7	92	61.3	0	0	---	0.00	29.940 
03:50	63.7	63.7	63.7	92	61.3	0	0	---	0.00	29.940 
03:55	63.7	63.7	63.7	92	61.3	0	0	---	0.00	29.940 
04:00	63.7	63.7	63.7	92	61.3	0	0	---	0.00	29.933 
04:05	63.5	63.5	63.5	93	61.4	0	0	---	0.00	29.933 
04:10	63.5	63.5	63.5	93	61.4	0	0	---	0.00	29.933 
04:15	63.5	63.5	63.5	93	61.4	0	0	---	0.00	29.930 
04:20	63.4	63.4	63.4	93	61.3	0	0	---	0.00	29.930 
04:25	63.4	63.4	63.4	93	61.3	0	0	---	0.00	29.930 
04:30	63.4	63.4	63.4	93	61.3	0	0	---	0.00	29.922 
04:35	63.4	63.4	63.4	93	61.3	0	0	---	0.00	29.922 
04:40	63.4	63.4	63.4	93	61.3	0	0	---	0.00	29.922 
04:45	63.4	63.4	63.4	93	61.3	0	0	---	0.00	29.924 
04:50	63.4	63.4	63.4	93	61.3	0	0	---	0.00	29.924 
04:55	63.4	63.4	63.4	93	61.3	0	0	---	0.00	29.924 
05:00	63.4	63.4	63.4	93	61.3	0	0	---	0.00	29.923 
05:05	63.5	63.5	63.5	92	61.1	0	0	---	0.00	29.923 
05:10	63.5	63.5	63.5	92	61.1	0	0	---	0.00	29.923 
05:15	63.5	63.5	63.5	92	61.1	0	0	---	0.00	29.924 
05:20	63.5	63.5	63.5	92	61.1	0	0	---	0.00	29.924 
05:25	63.5	63.5	63.5	92	61.1	0	0	---	0.00	29.924 
05:30	63.5	63.5	63.5	92	61.1	0	0	---	0.00	29.918 
05:35	63.5	63.5	63.5	92	61.1	0	0	---	0.00	29.918 
05:40	63.5	63.5	63.5	92	61.1	0	0	---	0.00	29.918 
05:45	63.4	63.4	63.4	92	61.0	0	0	---	0.00	29.917 
05:50	63.4	63.4	63.4	92	61.0	0	0	---	0.00	29.917 
05:55	63.4	63.4	63.4	92	61.0	0	0	---	0.00	29.917 
06:00	63.4	63.4	63.4	92	61.0	0	0	---	0.00	29.917 
06:05	63.4	63.4	63.4	92	61.0	0	0	---	0.00	29.917 
06:10	63.4	63.4	63.4	92	61.0	0	0	---	0.00	29.917 
06:15	63.4	63.4	63.4	92	61.0	0	0	---	0.00	29.919 
06:20	63.4	63.4	63.4	92	61.0	0	0	---	0.00	29.919 
06:25	63.7	63.7	63.7	92	61.3	0	0	---	0.00	29.919 
06:30	64.0	64.0	64.0	91	61.3	0	0	---	0.00	29.941 
06:35	64.3	64.3	64.3	90	61.3	0	0	---	0.00	29.941 
06:40	64.5	64.5	64.5	90	61.5	0	0	---	0.00	29.941 
06:45	64.7	64.7	64.7	89	61.4	0	0	---	0.00	29.934 
06:50	64.8	64.8	64.8	89	61.5	0	0	---	0.00	29.934 
06:55	65.0	65.0	65.0	88	61.4	0	0	---	0.00	29.934 
07:00	65.0	65.0	65.0	88	61.4	0	0	---	0.00	29.932 
07:05	65.2	65.2	65.2	88	61.6	0	0	---	0.00	29.932 
07:10	65.3	65.3	65.3	88	61.6	0	0	---	0.00	29.932 
07:15	65.5	65.5	65.5	87	61.5	0	0	---	0.00	29.926 
07:20	65.6	65.6	65.6	87	61.6	0	0	---	0.00	29.926 
07:25	65.8	65.8	65.8	86	61.5	0	0	---	0.00	29.926 
07:30	66.0	66.0	66.0	86	61.7	0	1	225	0.00	29.922 
07:35	66.1	66.1	66.1	85	61.5	0	0	---	0.00	29.922 
07:40	66.3	66.3	66.3	85	61.6	0	0	---	0.00	29.922 
07:45	66.4	66.4	66.4	85	61.7	0	0	---	0.00	29.923 
07:50	66.4	66.4	66.4	84	61.4	0	0	---	0.00	29.923 
07:55	66.4	66.4	66.4	84	61.4	0	0	---	0.00	29.923 
08:00	66.6	66.6	66.6	84	61.6	0	1	225	0.00	29.932 
08:05	66.6	66.6	66.6	84	61.6	0	1	225	0.00	29.932 
08:10	66.8	66.8	66.8	84	61.8	0	0	---	0.00	29.932 
08:15	66.9	66.9	66.9	84	61.9	0	0	---	0.00	29.931 
08:20	66.9	66.9	66.9	84	61.9	0	0	---	0.00	29.931 
08:25	67.1	67.1	67.1	84	62.1	0	0	---	0.00	29.931 
08:30	67.3	67.3	67.3	84	62.3	0	0	---	0.00	29.933 
08:35	67.3	67.3	67.3	83	62.0	0	0	---	0.00	29.933 
08:40	67.6	67.6	67.6	83	62.2	0	0	---	0.00	29.933 
08:45	67.8	67.8	67.8	83	62.4	0	1	225	0.00	29.936 
08:50	67.9	67.9	67.9	82	62.2	0	0	---	0.00	29.936 
08:55	68.1	68.1	68.1	82	62.4	0	1	270	0.00	29.936 
09:00	68.3	68.3	68.3	83	62.9	0	0	---	0.00	29.928 
09:05	68.4	68.4	68.4	82	62.7	0	1	270	0.00	29.928 
09:10	68.6	68.6	68.6	82	62.9	0	1	270	0.00	29.928 
09:15	68.6	68.6	68.6	83	63.2	0	2	135	0.00	29.893 
09:20	68.6	68.6	68.6	84	63.6	0	2	135	0.00	29.893 
09:25	68.6	68.6	68.6	84	63.6	0	1	135	0.00	29.893 
09:30	68.6	68.6	68.6	84	63.6	0	1	135	0.00	29.914 
09:35	68.4	68.4	68.4	84	63.4	0	0	---	0.00	29.914 
09:40	68.6	68.6	68.6	84	63.6	1	3	135	0.00	29.914 
09:45	68.6	68.6	68.6	84	63.6	1	3	90	0.00	29.889 
09:50	68.6	68.6	68.6	85	63.9	1	2	112	0.00	29.889 
09:55	68.8	68.8	68.8	85	64.1	0	1	135	0.00	29.889 
10:00	68.9	68.9	68.9	86	64.5	0	1	338	0.00	29.887 
10:05	69.1	69.1	69.1	86	64.7	0	1	338	0.00	29.887 
10:10	69.6	69.6	69.6	86	65.2	0	2	338	0.00	29.887 
10:15	70.3	70.3	70.3	86	65.9	0	2	292	0.00	29.888 
10:20	70.9	70.9	70.9	84	65.8	1	3	0	0.00	29.888 
10:25	71.5	71.5	71.5	83	66.1	1	3	292	0.00	29.888 
10:30	72.0	72.0	72.0	83	66.5	1	5	315	0.00	29.877 
10:35	72.8	72.8	72.8	81	66.6	0	2	225	0.00	29.877 
10:40	73.7	73.7	73.7	80	67.1	1	4	270	0.00	29.877 
10:45	74.7	74.7	74.7	76	66.6	2	4	270	0.00	29.872 
10:50	75.8	75.8	77.1	75	67.3	1	7	292	0.00	29.872 
10:55	76.7	76.7	78.3	74	67.8	1	4	292	0.00	29.872 
11:00	77.7	77.7	79.7	72	67.9	1	3	292	0.00	29.863 
11:05	78.5	78.5	80.7	70	67.9	1	3	292	0.00	29.863 
11:10	78.6	78.6	80.6	66	66.3	3	9	270	0.00	29.863 
11:15	78.8	78.8	80.9	66	66.5	2	5	270	0.00	29.864 
11:20	79.4	79.4	81.6	66	67.0	1	4	270	0.00	29.864 
11:25	79.8	79.8	82.1	65	67.0	2	5	270	0.00	29.864 
11:30	79.9	79.9	82.5	67	67.9	2	5	270	0.00	29.864 
11:35	80.3	80.3	82.8	65	67.4	1	5	248	0.00	29.864 
11:40	80.7	80.7	83.5	66	68.3	2	5	270	0.00	29.864 
11:45	81.1	81.1	84.0	65	68.2	2	4	248	0.00	29.863 
11:50	81.4	81.4	84.4	65	68.5	2	6	292	0.00	29.863 
11:55	82.0	82.0	86.0	68	70.4	1	3	292	0.00	29.863 
12:00	82.2	82.2	85.5	64	68.8	2	5	270	0.00	29.855 
12:05	82.4	82.4	85.8	64	69.0	3	5	270	0.00	29.855 
12:10	82.6	82.6	86.4	65	69.6	2	5	270	0.00	29.855 
12:15	83.0	83.0	87.1	65	70.0	2	4	270	0.00	29.853 
12:20	83.4	83.4	87.8	65	70.4	1	3	270	0.00	29.853 
12:25	83.6	83.6	87.9	64	70.1	2	8	270	0.00	29.853 
12:30	84.0	84.0	88.4	63	70.0	2	5	270	0.00	29.853 
12:35	84.3	84.3	88.9	63	70.3	1	3	270	0.00	29.853 
12:40	84.5	84.5	88.7	61	69.5	3	5	270	0.00	29.853 
12:45	84.3	84.3	88.6	62	69.8	2	5	248	0.00	29.848 
12:50	84.5	84.5	89.0	62	70.0	2	4	270	0.00	29.848 
12:55	84.7	84.7	89.3	62	70.2	2	5	270	0.00	29.848 
13:00	85.1	85.1	90.1	62	70.6	1	4	270	0.00	29.838 
13:05	85.1	85.1	90.1	62	70.6	2	4	270	0.00	29.838 
13:10	85.3	85.3	90.1	61	70.3	2	5	270	0.00	29.838 
13:15	85.7	85.7	90.9	61	70.7	1	4	248	0.00	29.839 
13:20	85.9	85.9	90.6	59	69.9	2	6	270	0.00	29.839 
13:25	85.9	85.9	90.2	58	69.4	2	4	270	0.00	29.839 
13:30	86.1	86.1	91.7	61	71.0	2	4	248	0.00	29.836 
13:35	86.5	86.5	94.5	66	73.8	1	5	270	0.00	29.836 
13:40	86.7	86.7	93.3	62	72.1	2	4	270	0.00	29.836 
13:45	87.0	87.0	91.9	57	69.9	2	5	270	0.00	29.833 
13:50	87.0	87.0	91.5	56	69.4	2	6	270	0.00	29.833 
13:55	87.0	87.0	91.1	55	68.8	2	6	270	0.00	29.833 
14:00	87.2	87.2	91.1	54	68.5	3	7	270	0.00	29.832 
14:05	87.2	87.2	91.1	54	68.5	2	4	270	0.00	29.832 
14:10	87.4	87.4	91.1	53	68.1	2	5	270	0.00	29.832 
14:15	86.7	86.7	89.9	53	67.5	3	6	270	0.00	29.832 
14:20	87.0	87.0	90.8	54	68.3	2	4	270	0.00	29.832 
14:25	87.0	87.0	89.7	51	66.6	3	6	270	0.00	29.832 
14:30	87.6	87.6	90.7	51	67.2	2	5	270	0.00	29.822 
14:35	87.6	87.6	90.7	51	67.2	3	6	270	0.00	29.822 
14:40	87.2	87.2	89.1	48	65.1	3	7	270	0.00	29.822 
14:45	87.4	87.4	89.1	47	64.7	3	6	270	0.00	29.823 
14:50	87.6	87.6	90.0	49	66.0	2	6	270	0.00	29.823 
14:55	88.2	88.2	92.1	52	68.3	2	4	270	0.00	29.823 
15:00	88.4	88.4	91.3	49	66.8	2	5	270	0.00	29.819 
15:05	88.6	88.6	90.6	46	65.1	2	5	248	0.00	29.819 
15:10	88.6	88.6	90.6	46	65.1	2	5	270	0.00	29.819 
15:15	88.4	88.4	91.0	48	66.2	2	6	270	0.00	29.815 
15:20	88.4	88.4	91.3	49	66.8	2	4	270	0.00	29.815 
15:25	88.8	88.8	92.0	49	67.1	2	6	270	0.00	29.815 
15:30	89.3	89.3	91.7	46	65.8	2	5	270	0.00	29.806 
15:35	89.5	89.5	92.8	48	67.2	3	5	270	0.00	29.806 
15:40	89.5	89.5	93.2	49	67.8	1	5	292	0.00	29.806 
15:45	89.7	89.7	94.0	50	68.5	1	4	292	0.00	29.800 
15:50	89.7	89.7	92.4	46	66.1	2	7	270	0.00	29.800 
15:55	89.5	89.5	92.1	46	65.9	3	5	270	0.00	29.800 
16:00	89.3	89.3	91.7	46	65.8	3	6	270	0.00	29.802 
16:05	89.5	89.5	92.4	47	66.6	2	4	270	0.00	29.802 
16:10	89.7	89.7	92.4	46	66.1	2	4	292	0.00	29.802 
16:15	89.7	89.7	92.8	47	66.7	2	6	270	0.00	29.799 
16:20	89.5	89.5	92.4	47	66.6	2	5	270	0.00	29.799 
16:25	89.7	89.7	92.4	46	66.1	1	3	270	0.00	29.799 
16:30	89.5	89.5	92.1	46	65.9	2	6	270	0.00	29.798 
16:35	89.5	89.5	92.4	47	66.6	2	7	270	0.00	29.798 
16:40	89.3	89.3	91.7	46	65.8	3	5	270	0.00	29.798 
16:45	89.0	89.0	91.2	46	65.5	3	7	270	0.00	29.799 
16:50	89.3	89.3	91.0	44	64.5	2	6	270	0.00	29.799 
16:55	88.8	88.8	90.9	46	65.3	3	6	270	0.00	29.799 
17:00	88.6	88.6	91.0	47	65.7	3	6	270	0.00	29.801 
17:05	88.6	88.6	90.6	46	65.1	3	7	248	0.00	29.801 
17:10	88.6	88.6	90.3	45	64.5	4	7	270	0.00	29.801 
17:15	88.6	88.6	89.9	44	63.9	2	4	315	0.00	29.803 
17:20	88.2	88.2	89.7	45	64.1	3	5	292	0.00	29.803 
17:25	87.8	87.8	90.4	49	66.2	2	4	270	0.00	29.803 
17:30	87.4	87.4	90.1	50	66.4	2	6	270	0.00	29.803 
17:35	87.4	87.4	90.1	50	66.4	3	6	270	0.00	29.803 
17:40	87.8	87.8	90.7	50	66.8	2	5	292	0.00	29.803 
17:45	87.6	87.6	90.4	50	66.6	3	5	270	0.00	29.803 
17:50	87.0	87.0	89.4	50	66.1	3	6	270	0.00	29.803 
17:55	86.5	86.5	88.9	51	66.2	2	6	292	0.00	29.803 
18:00	86.3	86.3	89.3	53	67.1	2	5	292	0.00	29.803 
18:05	86.3	86.3	89.3	53	67.1	2	4	292	0.00	29.803 
18:10	86.1	86.1	88.9	53	66.9	2	5	292	0.00	29.803 
18:15	85.9	85.9	88.6	53	66.7	2	5	270	0.00	29.803 
18:20	85.7	85.7	88.3	53	66.6	3	5	270	0.00	29.803 
18:25	85.7	85.7	88.6	54	67.1	2	6	270	0.00	29.803 
18:30	85.9	85.9	88.9	54	67.3	3	6	270	0.00	29.803 
18:35	86.3	86.3	89.6	54	67.7	2	3	292	0.00	29.803 
18:40	86.1	86.1	88.9	53	66.9	2	3	292	0.00	29.803 
18:45	85.7	85.7	88.3	53	66.6	2	4	270	0.00	29.801 
18:50	85.9	85.9	88.9	54	67.3	1	3	270	0.00	29.801 
18:55	86.1	86.1	88.9	53	66.9	2	5	270	0.00	29.801 
19:00	85.9	85.9	88.9	54	67.3	1	4	315	0.00	29.802 
19:05	85.9	85.9	88.9	54	67.3	2	5	270	0.00	29.802 
19:10	85.7	85.7	88.6	54	67.1	2	4	292	0.00	29.802 
19:15	85.7	85.7	88.6	54	67.1	2	4	292	0.00	29.797 
19:20	85.5	85.5	88.3	54	66.9	2	5	292	0.00	29.797 
19:25	85.5	85.5	88.3	54	66.9	2	4	270	0.00	29.797 
19:30	85.5	85.5	88.9	56	68.0	1	3	270	0.00	29.795 
19:35	85.5	85.5	88.6	55	67.5	1	3	270	0.00	29.795 
19:40	85.3	85.3	88.2	55	67.3	2	4	270	0.00	29.795 
19:45	85.3	85.3	88.5	56	67.8	1	3	292	0.00	29.793 
19:50	85.1	85.1	88.2	56	67.6	1	3	292	0.00	29.793 
19:55	85.1	85.1	88.5	57	68.1	0	2	292	0.00	29.793 
20:00	84.9	84.9	88.2	57	67.9	0	2	292	0.00	29.790 
20:05	84.7	84.7	88.1	58	68.3	1	2	292	0.00	29.790 
20:10	84.5	84.5	87.5	57	67.6	1	2	292	0.00	29.790 
20:15	84.3	84.3	87.5	58	67.9	1	4	315	0.00	29.790 
20:20	84.1	84.1	87.2	58	67.7	1	4	270	0.00	29.790 
20:25	84.0	84.0	87.0	58	67.6	1	2	270	0.00	29.790 
20:30	83.8	83.8	86.9	59	67.9	0	2	270	0.00	29.789 
20:35	83.6	83.6	86.9	60	68.2	0	1	270	0.00	29.789 
20:40	83.4	83.4	86.5	60	68.0	0	1	270	0.00	29.789 
20:45	83.2	83.2	86.5	61	68.3	0	1	270	0.00	29.788 
20:50	83.0	83.0	86.1	61	68.1	0	1	270	0.00	29.788 
20:55	82.8	82.8	86.1	62	68.4	0	1	270	0.00	29.788 
21:00	82.6	82.6	85.7	62	68.2	0	1	270	0.00	29.788 
21:05	82.2	82.2	85.3	63	68.3	0	0	---	0.00	29.788 
21:10	82.0	82.0	85.0	63	68.1	0	0	---	0.00	29.788 
21:15	81.8	81.8	84.9	64	68.4	0	0	---	0.00	29.787 
21:20	81.6	81.6	84.7	65	68.7	0	0	---	0.00	29.787 
21:25	81.2	81.2	84.1	65	68.3	0	0	---	0.00	29.787 
21:30	81.1	81.1	84.1	66	68.6	0	1	270	0.00	29.782 
21:35	80.7	80.7	83.7	67	68.7	0	0	---	0.00	29.782 
21:40	80.3	80.3	83.0	67	68.3	0	0	---	0.00	29.782 
21:45	79.9	79.9	82.6	68	68.4	0	0	---	0.00	29.786 
21:50	79.6	79.6	82.1	68	68.1	0	0	---	0.00	29.786 
21:55	79.4	79.4	81.9	69	68.3	0	0	---	0.00	29.786 
22:00	79.2	79.2	81.7	70	68.5	0	0	---	0.00	29.788 
22:05	79.0	79.0	81.4	70	68.4	0	0	---	0.00	29.788 
22:10	78.8	78.8	81.1	70	68.2	0	0	---	0.00	29.788 
22:15	78.8	78.8	81.1	70	68.2	0	1	270	0.00	29.783 
22:20	78.8	78.8	81.1	70	68.2	0	0	---	0.00	29.783 
22:25	78.8	78.8	81.2	71	68.6	0	0	---	0.00	29.783 
22:30	78.6	78.6	80.9	71	68.4	0	0	---	0.00	29.784 
22:35	78.6	78.6	80.9	71	68.4	0	0	---	0.00	29.784 
22:40	78.5	78.5	80.8	72	68.7	0	0	---	0.00	29.784 
22:45	78.3	78.3	80.5	72	68.5	0	0	---	0.00	29.787 
22:50	77.9	77.9	80.0	73	68.5	0	0	---	0.00	29.787 
22:55	77.7	77.7	79.7	74	68.7	0	0	---	0.00	29.787 
23:00	77.6	77.6	79.6	75	69.0	0	0	---	0.00	29.783 
23:05	77.4	77.4	79.3	75	68.8	0	0	---	0.00	29.783 
23:10	77.2	77.2	79.0	76	69.0	0	0	---	0.00	29.783 
23:15	76.8	76.8	78.4	77	69.0	0	0	---	0.00	29.780 
23:20	76.7	76.7	78.2	77	68.9	0	0	---	0.00	29.780 
23:25	76.5	76.5	77.9	78	69.1	0	0	---	0.00	29.780 
23:30	76.3	76.3	77.6	78	68.9	0	0	---	0.00	29.780 
23:35	76.0	76.0	77.1	79	69.0	0	0	---	0.00	29.780 
23:40	75.8	75.8	76.7	80	69.2	0	0	---	0.00	29.780 
23:45	75.6	75.6	76.3	81	69.3	0	0	---	0.00	29.781 
23:50	75.3	75.3	75.9	81	69.1	0	0	---	0.00	29.781 
23:55	75.1	75.1	75.5	82	69.2	0	0	---	0.00	29.781 

CoCoRaHS
IN-AL-39
A2 Web Hosting
Creative Commons License
GoDaddy
search engine by freefind advanced

loaded 2018-11-19 11:36:28 • last modified 2010-11-18 10:43:29
Privacy PolicyDisclaimer
• wx.awcolley.com is powered by PmWiki v.2002016 •
• all content (unless otherwise noted) © 2018 A W Colley